createdAt,value
2017-10-22T00:00:29.993Z,92.40
2017-10-22T00:03:01.250Z,92.40
2017-10-22T00:05:32.527Z,92.40
2017-10-22T00:08:03.282Z,92.40
2017-10-22T00:10:33.507Z,92.40
2017-10-22T00:13:04.059Z,92.40
2017-10-22T00:15:34.527Z,92.50
2017-10-22T00:18:05.143Z,92.40
2017-10-22T00:20:36.871Z,92.40
2017-10-22T00:23:07.362Z,92.50
2017-10-22T00:25:38.357Z,92.50
2017-10-22T00:28:08.764Z,92.40
2017-10-22T00:30:39.621Z,92.20
2017-10-22T00:33:11.262Z,92.30
2017-10-22T00:35:42.975Z,92.30
2017-10-22T00:38:13.322Z,92.20
2017-10-22T00:40:44.136Z,92.30
2017-10-22T00:43:14.640Z,92.30
2017-10-22T00:45:45.171Z,92.30
2017-10-22T00:48:16.480Z,92.10
2017-10-22T00:50:46.965Z,92.10
2017-10-22T00:53:18.007Z,92.00
2017-10-22T00:55:48.294Z,91.90
2017-10-22T00:58:19.795Z,91.80
2017-10-22T01:00:50.321Z,92.00
2017-10-22T01:03:21.172Z,92.10
2017-10-22T01:05:51.554Z,92.10
2017-10-22T01:08:22.563Z,92.00
2017-10-22T01:10:52.744Z,92.00
2017-10-22T01:13:23.178Z,91.90
2017-10-22T01:15:54.977Z,91.60
2017-10-22T01:18:26.796Z,91.80
2017-10-22T01:20:58.318Z,91.80
2017-10-22T01:23:28.649Z,91.80
2017-10-22T01:25:58.957Z,91.80
2017-10-22T01:28:29.944Z,91.80
2017-10-22T01:30:59.870Z,91.90
2017-10-22T01:33:30.686Z,91.90
2017-10-22T01:36:01.165Z,91.80
2017-10-22T01:38:32.864Z,91.80
2017-10-22T01:41:03.596Z,91.80
2017-10-22T01:43:34.186Z,91.80
2017-10-22T01:46:05.299Z,91.80
2017-10-22T01:48:35.944Z,91.80
2017-10-22T01:51:06.439Z,91.80
2017-10-22T01:53:37.096Z,91.80
2017-10-22T01:56:07.716Z,91.90
2017-10-22T01:58:38.850Z,91.90
2017-10-22T02:01:09.267Z,91.80
2017-10-22T02:03:40.158Z,91.70
2017-10-22T02:06:10.785Z,91.70
2017-10-22T02:08:42.024Z,91.60
2017-10-22T02:11:13.059Z,91.50
2017-10-22T02:13:44.101Z,91.30
2017-10-22T02:16:14.449Z,91.30
2017-10-22T02:18:44.911Z,91.20
2017-10-22T02:21:15.928Z,91.20
2017-10-22T02:23:48.124Z,91.20
2017-10-22T02:26:18.362Z,91.20
2017-10-22T02:28:49.741Z,90.80
2017-10-22T02:31:20.775Z,90.70
2017-10-22T02:33:52.124Z,90.70
2017-10-22T02:36:23.249Z,90.70
2017-10-22T02:38:53.511Z,90.70
2017-10-22T02:41:23.829Z,90.90
2017-10-22T02:43:53.990Z,90.50
2017-10-22T02:46:24.115Z,90.30
2017-10-22T02:48:54.182Z,90.30
2017-10-22T02:51:24.515Z,90.20
2017-10-22T02:53:54.991Z,90.30
2017-10-22T02:56:25.281Z,90.20
2017-10-22T02:58:55.735Z,90.10
2017-10-22T03:01:25.983Z,90.20
2017-10-22T03:03:56.452Z,90.20
2017-10-22T03:06:27.047Z,90.20
2017-10-22T03:08:57.977Z,90.30
2017-10-22T03:11:28.138Z,90.30
2017-10-22T03:13:58.381Z,90.40
2017-10-22T03:16:28.961Z,90.50
2017-10-22T03:19:00.045Z,91.70
2017-10-22T03:21:30.897Z,91.70
2017-10-22T03:24:01.053Z,91.60
2017-10-22T03:26:31.447Z,92.30
2017-10-22T03:29:02.089Z,92.70
2017-10-22T03:31:32.619Z,93.40
2017-10-22T03:34:02.910Z,94.20
2017-10-22T03:36:34.597Z,95.00
2017-10-22T03:39:04.957Z,95.20
2017-10-22T03:41:36.480Z,96.50
2017-10-22T03:44:08.130Z,96.70
2017-10-22T03:46:39.847Z,97.60
2017-10-22T03:49:09.946Z,97.40
2017-10-22T03:51:41.761Z,98.30
2017-10-22T03:54:11.838Z,98.10
2017-10-22T03:56:42.411Z,99.10
2017-10-22T03:59:13.688Z,99.60
2017-10-22T04:01:44.592Z,99.90
2017-10-22T04:04:15.168Z,99.90
2017-10-22T04:06:46.835Z,99.90
2017-10-22T04:09:16.906Z,99.90
2017-10-22T04:11:47.442Z,99.90
2017-10-22T04:14:17.534Z,99.90
2017-10-22T04:16:47.854Z,99.90
2017-10-22T04:19:18.033Z,99.90
2017-10-22T04:21:48.809Z,99.90
2017-10-22T04:24:18.977Z,99.90
2017-10-22T04:26:49.453Z,99.90
2017-10-22T04:29:20.205Z,99.90
2017-10-22T04:31:51.497Z,99.90
2017-10-22T04:34:21.976Z,99.90
2017-10-22T04:36:52.602Z,99.90
2017-10-22T04:39:23.360Z,99.90
2017-10-22T04:41:54.645Z,99.90
2017-10-22T04:44:25.126Z,99.90
2017-10-22T04:46:55.378Z,99.90
2017-10-22T04:49:25.720Z,99.90
2017-10-22T04:51:56.127Z,99.90
2017-10-22T04:54:26.989Z,99.90
2017-10-22T04:56:57.812Z,99.90
2017-10-22T04:59:28.254Z,99.90
2017-10-22T05:01:58.740Z,99.90
2017-10-22T05:04:29.395Z,99.90
2017-10-22T05:09:31.906Z,99.90
2017-10-22T05:12:02.204Z,99.90
2017-10-22T05:14:33.116Z,99.90
2017-10-22T05:17:03.133Z,99.90
2017-10-22T05:19:34.062Z,99.90
2017-10-22T05:22:05.359Z,99.90
2017-10-22T05:24:35.805Z,99.90
2017-10-22T05:27:06.185Z,99.90
2017-10-22T05:29:37.205Z,99.90
2017-10-22T05:32:07.691Z,99.90
2017-10-22T05:34:39.850Z,99.90
2017-10-22T05:37:10.892Z,99.90
2017-10-22T05:39:42.093Z,99.90
2017-10-22T05:42:13.024Z,99.90
2017-10-22T05:44:43.940Z,99.90
2017-10-22T05:47:14.478Z,99.90
2017-10-22T05:49:45.223Z,99.90
2017-10-22T05:52:16.244Z,99.90
2017-10-22T05:54:47.074Z,99.90
2017-10-22T05:57:17.633Z,99.90
2017-10-22T05:59:49.310Z,99.90
2017-10-22T06:02:20.404Z,99.90
2017-10-22T06:04:50.893Z,99.90
2017-10-22T06:07:20.978Z,99.90
2017-10-22T06:09:52.194Z,99.90
2017-10-22T06:12:22.447Z,99.90
2017-10-22T06:17:25.143Z,99.90
2017-10-22T06:19:56.205Z,99.90
2017-10-22T06:22:26.544Z,99.70
2017-10-22T06:24:58.225Z,99.90
2017-10-22T06:27:29.802Z,99.10
2017-10-22T06:30:01.097Z,99.50
2017-10-22T06:32:32.455Z,99.20
2017-10-22T06:35:03.237Z,99.40
2017-10-22T06:37:34.046Z,99.70
2017-10-22T06:40:04.648Z,99.90
2017-10-22T06:42:36.103Z,99.40
2017-10-22T06:45:06.860Z,99.40
2017-10-22T06:47:37.730Z,99.20
2017-10-22T06:50:08.777Z,99.20
2017-10-22T06:52:39.985Z,99.20
2017-10-22T06:55:11.780Z,98.70
2017-10-22T06:57:43.377Z,99.20
2017-10-22T07:00:14.130Z,99.20
2017-10-22T07:02:45.353Z,99.20
2017-10-22T07:05:15.739Z,98.90
2017-10-22T07:07:46.784Z,98.70
2017-10-22T07:10:16.870Z,98.60
2017-10-22T07:12:47.209Z,98.70
2017-10-22T07:15:18.886Z,98.40
2017-10-22T07:17:50.099Z,98.30
2017-10-22T07:20:21.073Z,98.50
2017-10-22T07:22:52.012Z,98.50
2017-10-22T07:25:23.284Z,98.30
2017-10-22T07:27:53.959Z,98.40
2017-10-22T07:30:25.438Z,98.20
2017-10-22T07:32:57.505Z,98.40
2017-10-22T07:35:28.986Z,98.00
2017-10-22T07:37:59.474Z,98.00
2017-10-22T07:40:31.437Z,98.20
2017-10-22T07:43:03.506Z,98.50
2017-10-22T07:45:34.729Z,98.80
2017-10-22T07:48:05.859Z,99.10
2017-10-22T07:50:36.336Z,99.30
2017-10-22T07:53:08.002Z,99.90
2017-10-22T07:55:38.754Z,99.90
2017-10-22T07:58:10.149Z,99.90
2017-10-22T08:00:41.342Z,99.90
2017-10-22T08:03:12.396Z,99.90
2017-10-22T08:05:43.461Z,99.90
2017-10-22T08:08:15.326Z,99.80
2017-10-22T08:10:46.647Z,99.90
2017-10-22T08:13:17.582Z,99.90
2017-10-22T08:15:48.027Z,99.70
2017-10-22T08:18:18.995Z,99.90
2017-10-22T08:23:22.293Z,99.00
2017-10-22T08:25:53.567Z,98.80
2017-10-22T08:28:25.316Z,98.80
2017-10-22T08:30:56.955Z,98.80
2017-10-22T08:33:28.479Z,98.80
2017-10-22T08:35:59.324Z,98.40
2017-10-22T08:38:29.820Z,98.00
2017-10-22T08:41:00.886Z,98.10
2017-10-22T08:43:31.629Z,98.00
2017-10-22T08:46:02.864Z,97.90
2017-10-22T08:48:34.800Z,98.40
2017-10-22T08:51:05.974Z,98.40
2017-10-22T08:53:37.696Z,98.80
2017-10-22T08:56:08.814Z,98.80
2017-10-22T08:58:40.624Z,99.40
2017-10-22T09:01:11.696Z,99.40
2017-10-22T09:03:43.798Z,99.40
2017-10-22T09:06:14.865Z,99.40
2017-10-22T09:08:46.118Z,99.50
2017-10-22T09:11:18.798Z,99.30
2017-10-22T09:13:49.779Z,99.40
2017-10-22T09:16:21.112Z,99.20
2017-10-22T09:18:53.151Z,99.10
2017-10-22T09:21:24.732Z,99.10
2017-10-22T09:23:55.345Z,99.00
2017-10-22T09:26:25.734Z,98.80
2017-10-22T09:28:56.396Z,98.80
2017-10-22T09:31:27.065Z,98.90
2017-10-22T09:33:58.633Z,98.50
2017-10-22T09:39:01.934Z,98.70
2017-10-22T09:41:33.095Z,98.50
2017-10-22T09:44:04.327Z,98.30
2017-10-22T09:46:35.174Z,98.40
2017-10-22T09:49:05.771Z,98.30
2017-10-22T09:51:36.285Z,98.50
2017-10-22T09:54:07.132Z,98.50
2017-10-22T09:56:38.338Z,98.50
2017-10-22T09:59:09.726Z,98.90
2017-10-22T10:01:40.651Z,98.80
2017-10-22T10:04:11.412Z,99.00
2017-10-22T10:06:42.619Z,99.00
2017-10-22T10:09:13.652Z,99.10
2017-10-22T10:11:44.942Z,99.00
2017-10-22T10:14:16.528Z,98.90
2017-10-22T10:16:49.033Z,98.80
2017-10-22T10:19:20.168Z,99.10
2017-10-22T10:21:51.864Z,99.20
2017-10-22T10:24:22.862Z,99.20
2017-10-22T10:26:54.124Z,99.10
2017-10-22T10:29:25.782Z,99.30
2017-10-22T10:31:57.254Z,99.30
2017-10-22T10:34:28.685Z,99.20
2017-10-22T10:36:59.952Z,99.20
2017-10-22T10:39:31.920Z,99.30
2017-10-22T10:42:03.300Z,99.30
2017-10-22T10:44:34.271Z,99.30
2017-10-22T10:47:05.072Z,99.30
2017-10-22T10:49:35.807Z,99.30
2017-10-22T10:52:06.219Z,99.30
2017-10-22T10:54:37.061Z,99.20
2017-10-22T10:57:08.033Z,99.00
2017-10-22T10:59:38.994Z,98.70
2017-10-22T11:02:10.290Z,98.70
2017-10-22T11:04:41.595Z,97.90
2017-10-22T11:07:12.573Z,97.60
2017-10-22T11:09:43.384Z,97.70
2017-10-22T11:12:15.697Z,97.20
2017-10-22T11:14:46.930Z,97.20
2017-10-22T11:17:18.559Z,97.10
2017-10-22T11:19:50.239Z,97.00
2017-10-22T11:22:22.283Z,96.50
2017-10-22T11:24:54.143Z,97.00
2017-10-22T11:27:25.913Z,96.80
2017-10-22T11:29:57.074Z,96.80
2017-10-22T11:32:29.048Z,96.90
2017-10-22T11:34:59.496Z,96.80
2017-10-22T11:37:30.924Z,96.50
2017-10-22T11:40:01.760Z,96.50
2017-10-22T11:42:32.693Z,96.40
2017-10-22T11:45:03.301Z,96.30
2017-10-22T11:47:34.037Z,96.00
2017-10-22T11:50:04.682Z,95.70
2017-10-22T11:52:35.796Z,95.70
2017-10-22T11:55:08.123Z,94.70
2017-10-22T11:57:38.484Z,94.70
2017-10-22T12:00:09.549Z,93.80
2017-10-22T12:02:41.057Z,93.70
2017-10-22T12:05:13.141Z,93.60
2017-10-22T12:07:44.613Z,93.20
2017-10-22T12:10:15.819Z,93.20
2017-10-22T12:12:47.178Z,91.20
2017-10-22T12:15:18.465Z,92.00
2017-10-22T12:17:48.640Z,92.00
2017-10-22T12:20:19.186Z,92.00
2017-10-22T12:22:50.248Z,92.00
2017-10-22T12:25:21.809Z,92.20
2017-10-22T12:27:52.650Z,91.90
2017-10-22T12:30:22.861Z,92.20
2017-10-22T12:32:53.343Z,92.10
2017-10-22T12:35:23.979Z,92.40
2017-10-22T12:37:54.606Z,92.10
2017-10-22T12:40:25.023Z,92.30
2017-10-22T12:42:55.569Z,92.50
2017-10-22T12:45:26.322Z,92.80
2017-10-22T12:47:57.002Z,92.40
2017-10-22T12:50:27.764Z,92.30
2017-10-22T12:52:59.210Z,92.30
2017-10-22T12:55:29.638Z,92.30
2017-10-22T12:58:00.075Z,92.40
2017-10-22T13:00:31.147Z,92.60
2017-10-22T13:03:01.784Z,92.60
2017-10-22T13:05:32.579Z,92.50
2017-10-22T13:08:03.074Z,92.40
2017-10-22T13:10:33.474Z,92.70
2017-10-22T13:13:04.122Z,92.50
2017-10-22T13:15:34.466Z,92.70
2017-10-22T13:18:04.574Z,92.50
2017-10-22T13:20:35.767Z,93.20
2017-10-22T13:23:06.105Z,93.20
2017-10-22T13:25:37.882Z,93.10
2017-10-22T13:28:08.159Z,93.10
2017-10-22T13:30:38.687Z,93.30
2017-10-22T13:33:10.036Z,94.20
2017-10-22T13:35:41.220Z,94.90
2017-10-22T13:38:11.528Z,94.60
2017-10-22T13:40:42.509Z,94.80
2017-10-22T13:43:13.096Z,95.00
2017-10-22T13:45:43.580Z,95.30
2017-10-22T13:48:14.017Z,95.60
2017-10-22T13:50:45.158Z,95.80
2017-10-22T13:53:15.392Z,95.80
2017-10-22T13:55:47.521Z,95.90
2017-10-22T13:58:17.759Z,95.90
2017-10-22T14:00:48.276Z,95.40
2017-10-22T14:03:18.385Z,93.90
2017-10-22T14:05:49.436Z,93.30
2017-10-22T14:08:19.646Z,92.50
2017-10-22T14:10:49.853Z,92.40
2017-10-22T14:13:20.439Z,92.20
2017-10-22T14:15:51.672Z,91.40
2017-10-22T14:18:23.008Z,91.20
2017-10-22T14:20:53.304Z,91.20
2017-10-22T14:23:23.728Z,90.90
2017-10-22T14:25:54.136Z,90.80
2017-10-22T14:28:24.999Z,90.70
2017-10-22T14:30:56.303Z,90.30
2017-10-22T14:33:26.535Z,89.90
2017-10-22T14:35:57.974Z,87.00
2017-10-22T14:38:28.592Z,87.00
2017-10-22T14:40:59.215Z,87.00
2017-10-22T14:43:29.835Z,86.70
2017-10-22T14:46:00.724Z,87.50
2017-10-22T14:48:32.445Z,86.80
2017-10-22T14:51:03.211Z,87.10
2017-10-22T14:53:33.754Z,87.40
2017-10-22T14:56:05.697Z,87.60
2017-10-22T14:58:37.705Z,87.50
2017-10-22T15:01:09.234Z,88.10
2017-10-22T15:03:39.334Z,88.10
2017-10-22T15:06:11.170Z,88.60
2017-10-22T15:08:43.332Z,88.90
2017-10-22T15:11:14.226Z,88.80
2017-10-22T15:13:45.210Z,88.80
2017-10-22T15:16:16.657Z,90.10
2017-10-22T15:18:47.188Z,89.70
2017-10-22T15:21:17.824Z,89.90
2017-10-22T15:23:48.967Z,89.30
2017-10-22T15:26:19.416Z,89.30
2017-10-22T15:28:49.804Z,89.40
2017-10-22T15:31:21.129Z,89.90
2017-10-22T15:33:51.699Z,89.90
2017-10-22T15:36:23.009Z,90.00
2017-10-22T15:38:54.114Z,90.10
2017-10-22T15:41:24.272Z,90.10
2017-10-22T15:43:54.268Z,90.40
2017-10-22T15:46:24.504Z,90.40
2017-10-22T15:48:55.254Z,90.40
2017-10-22T15:51:26.494Z,90.70
2017-10-22T15:53:56.895Z,90.70
2017-10-22T15:56:26.879Z,90.80
2017-10-22T15:58:57.159Z,91.00
2017-10-22T16:01:27.568Z,91.10
2017-10-22T16:03:58.273Z,91.20
2017-10-22T16:06:29.514Z,91.40
2017-10-22T16:08:59.825Z,91.40
2017-10-22T16:11:30.110Z,91.50
2017-10-22T16:14:00.602Z,91.60
2017-10-22T16:16:31.239Z,91.60
2017-10-22T16:19:01.638Z,91.70
2017-10-22T16:21:32.196Z,91.80
2017-10-22T16:24:02.958Z,91.90
2017-10-22T16:26:33.489Z,91.70
2017-10-22T16:29:04.623Z,91.40
2017-10-22T16:31:34.974Z,91.40
2017-10-22T16:34:06.352Z,91.10
2017-10-22T16:36:36.392Z,91.10
2017-10-22T16:39:06.799Z,91.10
2017-10-22T16:41:37.541Z,91.30
2017-10-22T16:44:08.230Z,91.50
2017-10-22T16:46:39.387Z,91.70
2017-10-22T16:49:09.935Z,91.60
2017-10-22T16:51:41.439Z,91.60
2017-10-22T16:54:12.602Z,91.80
2017-10-22T16:56:42.853Z,91.80
2017-10-22T16:59:13.325Z,91.80
2017-10-22T17:01:43.869Z,91.90
2017-10-22T17:04:14.985Z,91.80
2017-10-22T17:06:45.995Z,91.80
2017-10-22T17:09:16.398Z,91.90
2017-10-22T17:11:46.647Z,91.80
2017-10-22T17:14:17.067Z,91.80
2017-10-22T17:16:47.385Z,92.00
2017-10-22T17:19:17.841Z,92.10
2017-10-22T17:21:48.279Z,92.10
2017-10-22T17:24:18.970Z,92.20
2017-10-22T17:26:49.179Z,92.30
2017-10-22T17:29:20.475Z,92.60
2017-10-22T17:31:51.819Z,92.60
2017-10-22T17:34:23.462Z,92.70
2017-10-22T17:36:54.432Z,92.70
2017-10-22T17:39:24.672Z,92.80
2017-10-22T17:41:55.140Z,92.90
2017-10-22T17:44:25.487Z,93.00
2017-10-22T17:46:56.194Z,93.20
2017-10-22T17:49:26.323Z,93.30
2017-10-22T17:51:56.401Z,93.40
2017-10-22T17:54:27.396Z,93.60
2017-10-22T17:56:57.953Z,93.60
2017-10-22T17:59:28.467Z,93.70
2017-10-22T18:01:59.086Z,93.70
2017-10-22T18:04:29.466Z,93.80
2017-10-22T18:07:01.583Z,93.90
2017-10-22T18:09:32.451Z,93.90
2017-10-22T18:12:03.370Z,94.10
2017-10-22T18:14:33.799Z,94.10
2017-10-22T18:17:04.291Z,94.20
2017-10-22T18:19:35.104Z,94.30
2017-10-22T18:22:05.349Z,94.30
2017-10-22T18:24:35.945Z,94.40
2017-10-22T18:27:06.594Z,94.40
2017-10-22T18:29:37.206Z,94.50
2017-10-22T18:32:07.496Z,94.50
2017-10-22T18:34:37.946Z,94.70
2017-10-22T18:37:10.249Z,94.70
2017-10-22T18:39:41.079Z,94.90
2017-10-22T18:42:12.157Z,94.90
2017-10-22T18:44:43.745Z,95.30
2017-10-22T18:47:15.182Z,95.20
2017-10-22T18:49:46.801Z,95.40
2017-10-22T18:52:17.542Z,95.50
2017-10-22T18:54:48.020Z,95.50
2017-10-22T18:57:19.443Z,95.60
2017-10-22T18:59:50.111Z,95.50
2017-10-22T19:02:21.259Z,95.70
2017-10-22T19:04:52.007Z,95.70
2017-10-22T19:07:22.642Z,95.80
2017-10-22T19:09:53.044Z,95.80
2017-10-22T19:12:26.028Z,95.60
2017-10-22T19:14:56.332Z,95.50
2017-10-22T19:17:26.603Z,95.40
2017-10-22T19:19:57.717Z,95.30
2017-10-22T19:22:28.790Z,95.30
2017-10-22T19:24:59.327Z,95.20
2017-10-22T19:27:29.738Z,95.10
2017-10-22T19:30:00.281Z,95.00
2017-10-22T19:32:30.961Z,94.90
2017-10-22T19:35:01.566Z,94.80
2017-10-22T19:37:32.303Z,94.80
2017-10-22T19:40:02.865Z,94.80
2017-10-22T19:42:34.063Z,94.70
2017-10-22T19:45:04.753Z,94.70
2017-10-22T19:47:35.945Z,94.60
2017-10-22T19:50:06.385Z,94.60
2017-10-22T19:52:36.883Z,94.50
2017-10-22T19:55:07.222Z,94.60
2017-10-22T19:57:37.906Z,94.70
2017-10-22T20:00:08.359Z,94.70
2017-10-22T20:02:38.968Z,94.50
2017-10-22T20:05:10.268Z,94.40
2017-10-22T20:07:42.272Z,94.20
2017-10-22T20:10:13.502Z,94.00
2017-10-22T20:12:44.918Z,94.10
2017-10-22T20:15:15.421Z,94.10
2017-10-22T20:17:45.708Z,94.10
2017-10-22T20:20:15.781Z,94.00
2017-10-22T20:22:46.207Z,94.00
2017-10-22T20:25:16.844Z,94.30
2017-10-22T20:27:47.189Z,94.50
2017-10-22T20:30:17.850Z,94.50
2017-10-22T20:32:49.249Z,94.60
2017-10-22T20:35:20.550Z,94.60
2017-10-22T20:37:51.649Z,94.70
2017-10-22T20:40:22.341Z,94.70
2017-10-22T20:42:53.257Z,94.70
2017-10-22T20:45:24.492Z,94.60
2017-10-22T20:47:54.631Z,94.60
2017-10-22T20:50:25.983Z,95.00
2017-10-22T20:52:56.782Z,95.00
2017-10-22T20:55:27.157Z,95.20
2017-10-22T20:57:57.843Z,95.50
2017-10-22T21:00:29.097Z,95.40
2017-10-22T21:02:59.357Z,95.60
2017-10-22T21:05:29.733Z,95.70
2017-10-22T21:08:01.609Z,96.20
2017-10-22T21:10:32.877Z,95.90
2017-10-22T21:13:03.406Z,95.90
2017-10-22T21:15:33.825Z,96.00
2017-10-22T21:18:05.129Z,95.80
2017-10-22T21:20:35.612Z,95.80
2017-10-22T21:23:05.794Z,95.70
2017-10-22T21:25:36.251Z,95.70
2017-10-22T21:28:06.865Z,95.60
2017-10-22T21:30:38.465Z,95.60
2017-10-22T21:33:08.839Z,95.60
2017-10-22T21:35:40.171Z,95.30
2017-10-22T21:38:10.427Z,95.30
2017-10-22T21:40:40.656Z,95.40
2017-10-22T21:43:11.600Z,95.40
2017-10-22T21:45:42.094Z,95.40
2017-10-22T21:48:13.717Z,95.40
2017-10-22T21:50:44.067Z,95.40
2017-10-22T21:53:15.046Z,95.20
2017-10-22T21:55:45.474Z,95.20
2017-10-22T21:58:16.266Z,95.10
2017-10-22T22:00:47.079Z,95.20
2017-10-22T22:03:17.148Z,95.20
2017-10-22T22:05:47.717Z,95.10
2017-10-22T22:08:18.932Z,95.00
2017-10-22T22:10:48.858Z,95.10
2017-10-22T22:13:19.218Z,95.30
2017-10-22T22:15:49.529Z,95.30
2017-10-22T22:18:19.903Z,95.10
2017-10-22T22:20:51.012Z,95.20
2017-10-22T22:23:21.264Z,95.10
2017-10-22T22:25:51.665Z,95.10
2017-10-22T22:28:22.049Z,95.00
2017-10-22T22:30:52.530Z,95.00
2017-10-22T22:33:23.722Z,95.10
2017-10-22T22:35:54.389Z,95.00
2017-10-22T22:38:24.831Z,94.80
2017-10-22T22:40:55.785Z,95.00
2017-10-22T22:43:26.677Z,94.90
2017-10-22T22:45:56.762Z,94.90
2017-10-22T22:48:27.395Z,94.80
2017-10-22T22:50:57.878Z,94.80
2017-10-22T22:53:28.994Z,94.70
2017-10-22T22:55:59.249Z,94.70
2017-10-22T22:58:30.481Z,94.60
2017-10-22T23:01:00.982Z,94.60
2017-10-22T23:03:31.459Z,94.60
2017-10-22T23:06:01.909Z,95.00
2017-10-22T23:08:32.501Z,94.60
2017-10-22T23:11:03.052Z,94.60
2017-10-22T23:13:34.115Z,94.50
2017-10-22T23:16:04.504Z,94.40
2017-10-22T23:18:36.339Z,94.50
2017-10-22T23:21:07.497Z,94.40
2017-10-22T23:23:38.875Z,94.40
2017-10-22T23:26:10.544Z,94.40
2017-10-22T23:28:42.000Z,94.40
2017-10-22T23:31:12.151Z,94.30
2017-10-22T23:33:42.335Z,94.10
2017-10-22T23:36:12.731Z,94.30
2017-10-22T23:38:43.872Z,94.20
2017-10-22T23:41:14.067Z,94.20
2017-10-22T23:43:45.075Z,94.60
2017-10-22T23:46:15.468Z,94.20
2017-10-22T23:48:46.994Z,94.20
2017-10-22T23:51:18.252Z,94.20
2017-10-22T23:53:48.581Z,94.20
2017-10-22T23:56:18.983Z,94.40
2017-10-22T23:58:49.272Z,94.20
